Terminal Aerodrome Forecast
Issued by NWS

Home | Current Version | Previous Version | Text Only | Print | Product List | Glossary On
Versions: 1 2 3 4 5 6 7 8 9 10 11 12 13 14 15 16 17 18 19 20
000
FTUS43 KAPX 270008 AAB
TAFTVC
TAF AMD
KTVC 270008Z 2700/2724 00000KT 2SM -SHRA BR OVC007
     FM270600 00000KT 2SM BR VCSH OVC008
     FM271000 31004KT 4SM BR VCSH OVC008
     FM271200 31004KT P6SM OVC008
     FM272000 34004KT P6SM OVC012=

USA.gov is the U.S. government's official web portal to all federal, state and local government web resources and services.